Time;durP1;ratioP1;P1;durP2;ratioP2;P2;SDS_P1;SDS_P2;PMS_P1;PMS_P2;Temp;Humidity;BMP_temperature;BMP_pressure;BME280_temperature;BME280_humidity;BME280_pressure;Samples;Min_cycle;Max_cycle;Signal;HPM_P1;HPM_P2
2021/08/02 00:00:13;;;;;;;7.63;4.68;;;18.70;99.90;;;;;;5078542;28;20667;-77
2021/08/02 00:02:52;;;;;;;5.45;4.03;;;18.70;99.90;;;;;;5080846;28;20220;-76
2021/08/02 00:05:22;;;;;;;7.50;4.15;;;18.70;99.90;;;;;;5076093;28;20227;-77
2021/08/02 00:07:57;;;;;;;6.07;4.60;;;18.70;99.90;;;;;;5083955;28;20256;-77
2021/08/02 00:10:29;;;;;;;4.70;3.80;;;18.60;99.90;;;;;;5076965;28;20197;-77
2021/08/02 00:13:08;;;;;;;8.55;4.18;;;18.60;99.90;;;;;;5073813;28;20201;-77
2021/08/02 00:15:36;;;;;;;5.22;4.03;;;18.40;99.90;;;;;;5072722;28;20213;-77
2021/08/02 00:18:03;;;;;;;5.65;4.43;;;18.50;99.90;;;;;;5076300;28;20202;-77
2021/08/02 00:26:04;;;;;;;10.10;4.28;;;18.60;99.90;;;;;;5074988;28;20637;-77
2021/08/02 00:28:36;;;;;;;10.45;4.10;;;18.60;99.90;;;;;;5069468;28;20248;-77
2021/08/02 00:31:04;;;;;;;13.27;5.30;;;18.60;99.90;;;;;;5072621;28;20211;-76
2021/08/02 00:33:31;;;;;;;6.15;4.32;;;18.70;99.90;;;;;;5077000;28;20205;-77
2021/08/02 00:36:12;;;;;;;6.95;3.83;;;18.70;99.90;;;;;;5077286;28;20205;-77
2021/08/02 00:38:47;;;;;;;5.40;3.90;;;18.60;99.90;;;;;;5075625;28;20210;-76
2021/08/02 00:41:47;;;;;;;4.28;3.88;;;18.60;99.90;;;;;;5072638;28;20201;-76
2021/08/02 00:45:03;;;;;;;5.07;4.13;;;18.50;99.90;;;;;;5072345;28;20330;-76
2021/08/02 00:47:36;;;;;;;9.35;4.00;;;18.50;99.90;;;;;;5072228;28;20292;-77
2021/08/02 00:50:13;;;;;;;7.80;4.30;;;18.50;99.90;;;;;;5074655;28;20325;-77
2021/08/02 00:52:43;;;;;;;8.65;4.53;;;18.50;99.90;;;;;;5066590;28;20231;-77
2021/08/02 00:55:12;;;;;;;8.93;4.38;;;18.50;99.90;;;;;;5073724;28;20568;-77
2021/08/02 00:57:56;;;;;;;8.98;3.95;;;18.50;99.90;;;;;;5069017;28;20209;-77
2021/08/02 01:00:24;;;;;;;10.95;4.20;;;18.50;99.90;;;;;;5071826;28;20211;-76
2021/08/02 01:02:53;;;;;;;5.43;3.78;;;18.50;99.90;;;;;;5083496;28;20695;-77
2021/08/02 01:05:20;;;;;;;7.53;3.47;;;18.40;99.90;;;;;;5070484;28;20197;-77
2021/08/02 01:10:34;;;;;;;8.18;3.80;;;18.50;99.90;;;;;;5070108;28;20208;-77
2021/08/02 01:15:51;;;;;;;4.40;2.60;;;18.50;99.90;;;;;;5075702;28;20239;-77
2021/08/02 01:18:20;;;;;;;3.55;3.22;;;18.50;99.90;;;;;;5072925;28;20231;-77
2021/08/02 01:20:49;;;;;;;4.60;3.03;;;18.50;99.90;;;;;;5076061;28;20201;-76
2021/08/02 01:23:19;;;;;;;4.97;2.70;;;18.40;99.90;;;;;;5076753;28;20206;-77
2021/08/02 01:26:16;;;;;;;8.02;3.25;;;18.40;99.90;;;;;;5077176;28;20736;-77
2021/08/02 01:29:27;;;;;;;4.78;3.13;;;18.40;99.90;;;;;;5071047;28;20232;-76
2021/08/02 01:31:54;;;;;;;8.32;2.80;;;18.30;99.90;;;;;;5071635;28;20652;-77
2021/08/02 01:34:29;;;;;;;3.47;2.80;;;18.20;99.90;;;;;;5070024;28;20202;-76
2021/08/02 01:37:02;;;;;;;5.43;2.50;;;18.10;99.90;;;;;;5072974;28;20251;-76
2021/08/02 01:39:32;;;;;;;3.85;2.20;;;18.10;99.90;;;;;;5073980;28;20235;-76
2021/08/02 01:41:59;;;;;;;7.30;2.53;;;18.10;99.90;;;;;;5077183;28;20251;-77
2021/08/02 01:47:14;;;;;;;2.85;2.30;;;18.00;99.90;;;;;;5069324;28;20200;-76
2021/08/02 01:52:32;;;;;;;7.97;2.53;;;18.00;99.90;;;;;;5076402;28;20205;-76
2021/08/02 01:55:06;;;;;;;2.63;2.10;;;18.00;99.90;;;;;;5067480;28;20235;-76
2021/08/02 02:03:07;;;;;;;5.10;2.08;;;17.80;99.90;;;;;;5074166;28;20238;-77
2021/08/02 02:11:05;;;;;;;5.20;1.90;;;17.90;99.90;;;;;;5067278;28;20205;-77
2021/08/02 02:13:36;;;;;;;4.13;2.90;;;17.90;99.90;;;;;;5076401;28;20227;-77
2021/08/02 02:16:04;;;;;;;3.42;2.58;;;17.80;99.90;;;;;;5074988;28;20223;-77
2021/08/02 02:18:36;;;;;;;4.57;3.05;;;17.60;99.90;;;;;;5075367;28;20201;-77
2021/08/02 02:21:05;;;;;;;6.22;2.85;;;17.40;99.90;;;;;;5074810;28;20549;-77
2021/08/02 02:23:32;;;;;;;27.23;3.13;;;17.40;99.90;;;;;;5077039;28;20198;-77
2021/08/02 02:26:00;;;;;;;5.18;2.15;;;17.40;99.90;;;;;;5077287;28;20202;-77
2021/08/02 02:28:31;;;;;;;4.95;3.13;;;17.40;99.90;;;;;;5072484;28;20251;-76
2021/08/02 02:30:58;;;;;;;7.30;3.08;;;17.50;99.90;;;;;;5071284;28;20202;-76
2021/08/02 02:33:27;;;;;;;6.15;3.13;;;17.50;99.90;;;;;;5073384;28;20239;-76
2021/08/02 02:35:55;;;;;;;2.97;2.65;;;17.30;99.90;;;;;;5072221;28;20228;-76
2021/08/02 02:38:22;;;;;;;5.88;2.97;;;17.20;99.90;;;;;;5075569;28;20223;-77
2021/08/02 02:40:50;;;;;;;5.68;3.42;;;17.20;99.90;;;;;;5069225;28;20201;-77
2021/08/02 02:43:18;;;;;;;4.82;2.90;;;17.20;99.90;;;;;;5071470;28;20194;-77
2021/08/02 02:45:48;;;;;;;7.25;3.20;;;17.20;99.90;;;;;;5077272;28;20224;-77
2021/08/02 02:48:17;;;;;;;5.40;2.50;;;17.30;99.90;;;;;;5076297;28;20248;-77
2021/08/02 02:50:46;;;;;;;8.05;3.15;;;17.30;99.90;;;;;;5078207;28;20206;-77
2021/08/02 02:53:15;;;;;;;5.47;3.25;;;17.30;99.90;;;;;;5075867;28;20202;-77
2021/08/02 02:55:44;;;;;;;7.20;3.40;;;17.30;99.90;;;;;;5082689;28;20231;-77
2021/08/02 02:58:11;;;;;;;7.22;3.20;;;17.30;99.90;;;;;;5084621;28;20209;-77
2021/08/02 03:00:39;;;;;;;9.38;3.28;;;17.20;99.90;;;;;;5070840;28;20197;-77
2021/08/02 03:03:10;;;;;;;4.93;2.88;;;17.10;99.90;;;;;;5074841;28;20327;-77
2021/08/02 03:05:39;;;;;;;5.38;3.08;;;17.10;99.90;;;;;;5079322;28;20235;-77
2021/08/02 03:08:08;;;;;;;2.90;2.70;;;17.10;99.90;;;;;;5077623;28;20222;-77
2021/08/02 03:10:35;;;;;;;7.28;3.22;;;17.20;99.90;;;;;;5074431;28;20235;-77
2021/08/02 03:13:02;;;;;;;7.80;2.95;;;17.20;99.90;;;;;;5084304;28;20208;-77
2021/08/02 03:15:29;;;;;;;5.47;3.25;;;17.20;99.90;;;;;;5070049;28;20193;-77
2021/08/02 03:17:56;;;;;;;7.25;3.25;;;17.20;99.90;;;;;;5077726;28;20205;-77
2021/08/02 03:20:24;;;;;;;7.25;3.17;;;17.20;99.90;;;;;;5080196;28;20205;-77
2021/08/02 03:22:54;;;;;;;6.72;3.10;;;17.10;99.90;;;;;;5069877;28;20203;-77
2021/08/02 03:25:29;;;;;;;10.57;3.17;;;17.10;99.90;;;;;;5070307;28;20205;-76
2021/08/02 03:28:03;;;;;;;6.38;3.20;;;17.10;99.90;;;;;;5073996;28;20247;-77
2021/08/02 03:30:34;;;;;;;6.68;3.13;;;17.20;99.90;;;;;;5068973;28;20644;-77
2021/08/02 03:33:02;;;;;;;5.40;3.30;;;17.20;99.90;;;;;;5072739;28;20225;-77
2021/08/02 03:35:31;;;;;;;3.80;2.95;;;17.20;99.90;;;;;;5077925;28;20227;-77
2021/08/02 03:37:59;;;;;;;7.50;3.05;;;17.20;99.90;;;;;;5070881;28;20225;-77
2021/08/02 03:40:26;;;;;;;3.58;2.72;;;17.10;99.90;;;;;;5078413;28;20235;-77
2021/08/02 03:42:54;;;;;;;11.25;3.60;;;17.10;99.90;;;;;;5077114;28;20230;-77
2021/08/02 03:45:22;;;;;;;5.20;3.75;;;17.00;99.90;;;;;;5080167;28;20680;-77
2021/08/02 03:47:49;;;;;;;6.45;3.40;;;17.10;99.90;;;;;;5076850;28;20235;-77
2021/08/02 03:50:16;;;;;;;5.32;3.28;;;17.10;99.90;;;;;;5081953;28;20542;-77
2021/08/02 03:52:47;;;;;;;5.65;2.67;;;17.10;99.90;;;;;;5079287;28;20202;-77
2021/08/02 03:55:15;;;;;;;3.33;3.03;;;17.10;99.90;;;;;;5068496;28;20205;-77
2021/08/02 03:57:42;;;;;;;6.80;3.45;;;17.20;99.90;;;;;;5082434;28;20204;-76
2021/08/02 04:00:09;;;;;;;7.28;3.72;;;17.20;99.90;;;;;;5065585;28;20460;-76
2021/08/02 04:02:38;;;;;;;6.78;3.72;;;17.20;99.90;;;;;;5071454;28;20201;-76
2021/08/02 04:05:05;;;;;;;3.28;2.97;;;17.20;99.90;;;;;;5068057;28;20580;-77
2021/08/02 04:07:32;;;;;;;11.88;3.30;;;17.20;99.90;;;;;;5072251;28;20198;-74
2021/08/02 04:10:00;;;;;;;5.97;3.60;;;17.20;99.90;;;;;;5080423;28;20692;-74
2021/08/02 04:12:27;;;;;;;4.45;3.30;;;17.20;99.90;;;;;;5079056;28;20220;-74
2021/08/02 04:14:54;;;;;;;3.92;2.90;;;17.20;99.90;;;;;;5070211;28;20577;-75
2021/08/02 04:17:21;;;;;;;9.07;3.85;;;17.30;99.90;;;;;;5073731;28;20266;-75
2021/08/02 04:19:48;;;;;;;13.43;4.30;;;17.30;99.90;;;;;;5066939;28;20236;-75
2021/08/02 04:22:15;;;;;;;5.93;4.00;;;17.30;99.90;;;;;;5072293;28;20197;-74
2021/08/02 04:24:42;;;;;;;4.72;3.38;;;17.30;99.90;;;;;;5061835;28;20209;-74
2021/08/02 04:27:10;;;;;;;9.32;3.63;;;17.20;99.90;;;;;;5071727;28;20196;-75
2021/08/02 04:29:37;;;;;;;3.97;3.03;;;17.10;99.90;;;;;;5074058;28;20225;-75
2021/08/02 04:32:05;;;;;;;12.48;4.10;;;17.10;99.90;;;;;;5068747;28;20201;-75
2021/08/02 04:34:32;;;;;;;10.68;3.35;;;17.10;99.90;;;;;;5083520;28;20231;-75
2021/08/02 04:36:59;;;;;;;5.80;3.13;;;17.10;99.90;;;;;;5079391;28;20254;-75
2021/08/02 04:39:26;;;;;;;6.90;3.10;;;17.20;99.90;;;;;;5075258;28;20201;-74
2021/08/02 04:41:53;;;;;;;6.72;3.78;;;17.10;99.90;;;;;;5066494;28;20605;-74
2021/08/02 04:44:21;;;;;;;11.63;3.80;;;17.10;99.90;;;;;;5072334;28;20202;-74
2021/08/02 04:46:48;;;;;;;4.82;3.45;;;17.10;99.90;;;;;;5068673;28;20210;-74
2021/08/02 04:49:15;;;;;;;4.53;3.50;;;17.20;99.90;;;;;;5074148;28;20255;-74
2021/08/02 04:51:42;;;;;;;4.68;3.75;;;17.20;99.90;;;;;;5072692;28;20201;-74
2021/08/02 04:54:09;;;;;;;6.47;3.33;;;17.30;99.90;;;;;;5072900;28;20270;-74
2021/08/02 04:56:36;;;;;;;6.03;4.13;;;17.30;99.90;;;;;;5071511;28;20231;-74
2021/08/02 04:59:03;;;;;;;7.47;2.90;;;17.30;99.90;;;;;;5071698;28;20202;-74
2021/08/02 05:01:31;;;;;;;7.15;3.45;;;17.40;99.90;;;;;;5082177;28;20262;-74
2021/08/02 05:03:58;;;;;;;13.65;4.45;;;17.40;99.90;;;;;;5066724;28;20241;-74
2021/08/02 05:06:25;;;;;;;10.50;3.55;;;17.40;99.90;;;;;;5075897;28;20668;-75
2021/08/02 05:08:52;;;;;;;14.00;3.55;;;17.40;99.90;;;;;;5076696;28;20256;-74
2021/08/02 05:11:19;;;;;;;8.88;3.55;;;17.30;99.90;;;;;;5066443;28;20201;-74
2021/08/02 05:13:46;;;;;;;5.60;3.63;;;17.40;99.90;;;;;;5078192;28;20251;-75
2021/08/02 05:16:13;;;;;;;7.03;3.60;;;17.30;99.90;;;;;;5072551;28;20263;-75
2021/08/02 05:18:41;;;;;;;6.80;4.18;;;17.40;99.90;;;;;;5074769;28;20967;-74
2021/08/02 05:21:08;;;;;;;6.38;3.90;;;17.40;99.90;;;;;;5071471;28;20266;-74
2021/08/02 05:23:35;;;;;;;5.28;3.90;;;17.30;99.90;;;;;;5071833;28;20209;-74
2021/08/02 05:26:02;;;;;;;7.22;3.95;;;17.40;99.90;;;;;;5076814;28;20205;-74
2021/08/02 05:28:29;;;;;;;6.22;3.78;;;17.40;99.90;;;;;;5071860;28;20225;-74
2021/08/02 05:30:56;;;;;;;4.03;3.33;;;17.40;99.90;;;;;;5073485;28;20232;-74
2021/08/02 05:33:23;;;;;;;12.65;4.03;;;17.40;99.90;;;;;;5073203;28;20564;-75
2021/08/02 05:35:51;;;;;;;6.65;3.70;;;17.40;99.90;;;;;;5078024;28;20209;-74
2021/08/02 05:38:18;;;;;;;6.20;3.78;;;17.40;99.90;;;;;;5071780;28;20197;-74
2021/08/02 05:40:45;;;;;;;5.32;3.78;;;17.50;99.90;;;;;;5077742;28;20201;-75
2021/08/02 05:43:12;;;;;;;6.90;4.00;;;17.50;99.90;;;;;;5081396;28;20197;-75
2021/08/02 05:45:39;;;;;;;8.32;4.45;;;17.60;99.90;;;;;;5071300;28;20228;-75
2021/08/02 05:48:06;;;;;;;7.32;3.72;;;17.60;99.90;;;;;;5074526;28;20291;-74
2021/08/02 05:50:33;;;;;;;7.03;4.18;;;17.70;99.90;;;;;;5075747;28;20221;-74
2021/08/02 05:53:01;;;;;;;7.78;4.78;;;17.70;99.90;;;;;;5081317;28;20197;-75
2021/08/02 05:55:28;;;;;;;9.27;4.00;;;17.80;99.90;;;;;;5079696;28;20257;-75
2021/08/02 05:57:55;;;;;;;8.60;4.03;;;17.80;99.90;;;;;;5069151;28;20243;-75
2021/08/02 06:00:23;;;;;;;7.70;4.53;;;17.80;99.90;;;;;;5077260;28;20634;-75
2021/08/02 06:02:50;;;;;;;6.78;4.75;;;17.80;99.90;;;;;;5074748;28;20251;-74
2021/08/02 06:05:17;;;;;;;8.35;4.40;;;17.80;99.90;;;;;;5076198;28;20197;-75
2021/08/02 06:07:44;;;;;;;10.93;4.82;;;18.00;99.90;;;;;;5069347;28;20205;-74
2021/08/02 06:10:13;;;;;;;6.63;4.68;;;17.90;99.90;;;;;;5079274;28;20225;-75
2021/08/02 06:12:41;;;;;;;9.43;5.07;;;18.00;99.90;;;;;;5072026;28;20225;-75
2021/08/02 06:15:10;;;;;;;11.77;5.65;;;18.00;99.90;;;;;;5062630;28;20197;-75
2021/08/02 06:17:37;;;;;;;10.60;4.53;;;18.00;99.90;;;;;;5072714;28;20201;-74
2021/08/02 06:20:05;;;;;;;14.20;5.35;;;18.10;99.90;;;;;;5081217;28;20232;-75
2021/08/02 06:22:32;;;;;;;7.63;4.88;;;18.10;99.90;;;;;;5084640;28;20205;-75
2021/08/02 06:24:59;;;;;;;9.00;4.88;;;18.00;99.90;;;;;;5073127;28;20205;-76
2021/08/02 06:27:30;;;;;;;7.05;4.47;;;18.10;99.90;;;;;;5069744;28;20644;-75
2021/08/02 06:29:57;;;;;;;9.35;5.05;;;18.10;99.90;;;;;;5068840;28;20291;-74
2021/08/02 06:32:24;;;;;;;10.85;4.07;;;18.00;99.90;;;;;;5073989;28;20228;-75
2021/08/02 06:34:51;;;;;;;12.05;5.28;;;18.00;99.90;;;;;;5077152;28;20258;-75
2021/08/02 06:37:18;;;;;;;12.13;5.78;;;18.10;99.90;;;;;;5084864;28;20222;-74
2021/08/02 06:39:45;;;;;;;10.00;5.13;;;18.10;99.90;;;;;;5085159;28;20553;-74
2021/08/02 06:42:14;;;;;;;8.00;5.07;;;18.10;99.90;;;;;;5075586;28;20205;-75
2021/08/02 06:44:42;;;;;;;8.38;5.00;;;18.20;99.90;;;;;;5081247;28;20201;-74
2021/08/02 06:47:09;;;;;;;8.85;4.82;;;18.30;99.90;;;;;;5075473;28;20267;-74
2021/08/02 06:49:36;;;;;;;11.68;4.78;;;18.30;99.90;;;;;;5077330;28;20225;-74
2021/08/02 06:52:04;;;;;;;10.23;4.78;;;18.20;99.90;;;;;;5072870;28;20201;-74
2021/08/02 06:54:31;;;;;;;10.60;5.10;;;18.20;99.90;;;;;;5085792;28;20259;-74
2021/08/02 06:56:58;;;;;;;11.88;5.20;;;18.10;99.90;;;;;;5072837;28;20206;-74
2021/08/02 06:59:25;;;;;;;11.07;5.32;;;18.00;99.90;;;;;;5071703;28;20240;-74
2021/08/02 07:01:53;;;;;;;11.40;5.53;;;17.90;99.90;;;;;;5085018;28;20204;-74
2021/08/02 07:04:20;;;;;;;10.52;5.38;;;17.70;99.90;;;;;;5082452;28;20238;-75
2021/08/02 07:06:47;;;;;;;8.35;5.03;;;17.60;99.90;;;;;;5073789;28;20198;-75
2021/08/02 07:09:14;;;;;;;7.90;4.53;;;17.60;99.90;;;;;;5079911;28;20229;-74
2021/08/02 07:11:41;;;;;;;4.70;3.88;;;17.80;99.90;;;;;;5074427;28;20216;-74
2021/08/02 07:14:08;;;;;;;10.30;4.43;;;18.00;99.90;;;;;;5076772;28;20198;-74
2021/08/02 07:16:35;;;;;;;11.65;4.35;;;18.10;99.90;;;;;;5072284;28;20232;-74
2021/08/02 07:19:03;;;;;;;6.22;4.00;;;18.20;99.90;;;;;;5074734;28;20201;-74
2021/08/02 07:21:30;;;;;;;9.02;4.32;;;18.20;99.90;;;;;;5078894;28;20580;-74
2021/08/02 07:23:57;;;;;;;7.93;3.95;;;18.10;99.90;;;;;;5072009;28;20232;-75
2021/08/02 07:26:24;;;;;;;6.88;3.88;;;18.10;99.90;;;;;;5076186;28;20201;-74
2021/08/02 07:28:51;;;;;;;11.80;4.68;;;18.00;99.90;;;;;;5073361;28;20216;-75
2021/08/02 07:31:18;;;;;;;6.30;4.18;;;18.00;99.90;;;;;;5083434;28;20201;-75
2021/08/02 07:33:45;;;;;;;8.32;3.88;;;18.00;99.90;;;;;;5067533;28;20255;-75
2021/08/02 07:36:13;;;;;;;9.40;3.92;;;18.00;99.90;;;;;;5066633;28;20223;-75
2021/08/02 07:38:41;;;;;;;5.18;3.33;;;17.90;99.90;;;;;;5083938;28;20240;-75
2021/08/02 07:41:08;;;;;;;7.60;3.63;;;17.80;99.90;;;;;;5072214;28;20263;-75
2021/08/02 07:43:35;;;;;;;9.32;3.80;;;17.70;99.90;;;;;;5070817;28;20231;-74
2021/08/02 07:46:01;;;;;;;6.82;3.95;;;17.80;99.90;;;;;;5063671;28;20206;-75
2021/08/02 07:48:28;;;;;;;8.95;3.80;;;17.90;99.90;;;;;;5074121;28;20224;-74
2021/08/02 07:50:55;;;;;;;7.93;3.78;;;17.90;99.90;;;;;;5079523;28;20623;-73
2021/08/02 07:53:24;;;;;;;8.32;4.20;;;17.90;99.90;;;;;;5072436;28;20197;-74
2021/08/02 07:55:51;;;;;;;7.00;4.10;;;17.70;99.90;;;;;;5078869;28;20232;-74
2021/08/02 07:58:18;;;;;;;8.23;4.10;;;17.60;99.90;;;;;;5078151;28;20201;-74
2021/08/02 08:00:45;;;;;;;8.38;4.53;;;17.60;99.90;;;;;;5066549;28;20205;-74
2021/08/02 08:03:13;;;;;;;6.65;4.38;;;17.70;99.90;;;;;;5067227;28;20751;-74
2021/08/02 08:05:40;;;;;;;7.57;4.10;;;17.80;99.90;;;;;;5070105;28;20221;-74
2021/08/02 08:08:07;;;;;;;5.97;5.20;;;17.80;99.90;;;;;;5071227;28;20228;-74
2021/08/02 08:10:35;;;;;;;20.42;5.35;;;17.80;99.90;;;;;;5074726;28;20237;-74
2021/08/02 08:13:02;;;;;;;10.10;4.80;;;17.80;99.90;;;;;;5065825;28;20202;-74
2021/08/02 08:15:30;;;;;;;8.05;5.43;;;17.80;99.90;;;;;;5073935;28;20201;-74
2021/08/02 08:17:57;;;;;;;7.47;4.93;;;17.80;99.90;;;;;;5073460;28;20214;-73
2021/08/02 08:20:25;;;;;;;10.93;4.85;;;17.60;99.90;;;;;;5076843;28;20237;-73
2021/08/02 08:22:52;;;;;;;7.30;4.25;;;17.50;99.90;;;;;;5066263;28;20201;-73
2021/08/02 08:25:20;;;;;;;8.10;4.55;;;17.40;99.90;;;;;;5076346;28;20251;-79
2021/08/02 08:27:49;;;;;;;5.70;4.75;;;17.50;99.90;;;;;;5074136;28;20200;-74
2021/08/02 08:30:17;;;;;;;9.70;4.32;;;17.60;99.90;;;;;;5071886;28;20225;-74
2021/08/02 08:32:44;;;;;;;7.90;4.75;;;17.70;99.90;;;;;;5066077;28;20205;-74
2021/08/02 08:35:12;;;;;;;8.05;3.80;;;17.90;99.90;;;;;;5082146;28;20263;-74
2021/08/02 08:37:40;;;;;;;6.15;4.15;;;18.10;99.90;;;;;;5077760;28;20204;-75
2021/08/02 08:40:09;;;;;;;5.90;3.97;;;18.30;99.90;;;;;;5065449;28;20235;-75
2021/08/02 08:42:37;;;;;;;8.25;2.80;;;18.50;99.90;;;;;;5070841;28;20202;-74
2021/08/02 08:45:07;;;;;;;4.72;2.95;;;18.60;99.90;;;;;;5072726;28;20202;-74
2021/08/02 08:47:35;;;;;;;7.03;2.95;;;18.70;99.90;;;;;;5072207;28;20231;-75
2021/08/02 08:50:03;;;;;;;8.73;3.15;;;18.50;99.90;;;;;;5078518;28;20225;-75
2021/08/02 08:52:33;;;;;;;9.13;3.22;;;18.60;99.90;;;;;;5080166;28;20254;-74
2021/08/02 08:55:00;;;;;;;5.03;2.72;;;18.70;99.90;;;;;;5064754;28;20205;-74
2021/08/02 08:57:27;;;;;;;13.25;3.65;;;18.70;99.90;;;;;;5077026;28;20254;-74
2021/08/02 08:59:55;;;;;;;5.28;3.30;;;18.70;99.90;;;;;;5077888;28;20198;-74
2021/08/02 09:02:27;;;;;;;6.70;3.13;;;18.80;99.90;;;;;;5070024;28;20197;-74
2021/08/02 09:04:54;;;;;;;9.45;3.38;;;18.90;99.90;;;;;;5074013;28;20679;-74
2021/08/02 09:07:33;;;;;;;5.78;3.72;;;19.00;99.90;;;;;;5066145;28;20255;-74
2021/08/02 09:10:00;;;;;;;7.60;2.88;;;19.00;99.90;;;;;;5062225;28;20221;-74
2021/08/02 09:12:27;;;;;;;2.80;2.38;;;19.10;99.90;;;;;;5059337;28;20198;-74
2021/08/02 09:14:56;;;;;;;5.63;2.47;;;19.10;99.90;;;;;;5057640;28;20206;-75
2021/08/02 09:17:35;;;;;;;2.10;1.67;;;19.20;99.90;;;;;;5056952;28;20234;-75
2021/08/02 09:20:04;;;;;;;4.18;1.50;;;19.30;99.90;;;;;;5062195;28;20205;-75
2021/08/02 09:22:33;;;;;;;2.15;1.33;;;19.20;99.90;;;;;;5059733;28;20652;-74
2021/08/02 09:25:11;;;;;;;5.65;1.70;;;19.40;99.90;;;;;;5056659;28;20197;-75
2021/08/02 09:27:39;;;;;;;5.55;1.73;;;19.30;99.90;;;;;;5052616;28;20229;-75
2021/08/02 09:30:23;;;;;;;2.72;1.58;;;19.40;99.90;;;;;;5056359;28;20221;-75
2021/08/02 09:32:57;;;;;;;2.92;1.00;;;19.60;99.90;;;;;;5051950;28;20232;-75
2021/08/02 09:35:32;;;;;;;2.03;1.15;;;19.80;99.90;;;;;;5054814;28;20217;-75
2021/08/02 09:38:02;;;;;;;3.28;1.50;;;19.80;99.90;;;;;;5055217;28;20671;-75
2021/08/02 09:40:36;;;;;;;2.03;1.20;;;19.90;99.90;;;;;;5053385;28;20265;-75
2021/08/02 09:43:02;;;;;;;1.58;1.40;;;20.10;99.90;;;;;;5060050;28;20201;-75
2021/08/02 09:45:40;;;;;;;2.70;1.40;;;20.40;99.90;;;;;;5055018;28;20214;-75
2021/08/02 09:48:08;;;;;;;1.77;1.17;;;20.40;99.90;;;;;;5057747;28;20284;-75
2021/08/02 09:50:36;;;;;;;1.42;1.33;;;20.60;99.90;;;;;;5054548;28;20229;-76
2021/08/02 09:53:03;;;;;;;3.90;1.35;;;20.80;99.90;;;;;;5058880;28;20299;-75
2021/08/02 09:55:30;;;;;;;4.72;1.40;;;20.90;99.90;;;;;;5058792;28;20221;-74
2021/08/02 09:57:57;;;;;;;3.35;1.30;;;21.00;99.90;;;;;;5059410;28;20202;-74
2021/08/02 10:00:24;;;;;;;6.05;1.35;;;21.10;99.90;;;;;;5056916;28;20209;-75
2021/08/02 10:08:23;;;;;;;2.10;1.20;;;21.00;99.90;;;;;;5100286;28;20208;-74
2021/08/02 10:10:50;;;;;;;1.38;0.98;;;21.10;99.90;;;;;;5106794;28;20224;-74
2021/08/02 10:13:23;;;;;;;7.45;1.40;;;21.00;99.90;;;;;;5099914;28;20254;-74
2021/08/02 10:15:53;;;;;;;2.78;1.40;;;20.90;99.90;;;;;;5095620;28;20216;-73
2021/08/02 10:18:21;;;;;;;2.28;1.20;;;21.00;99.90;;;;;;5097525;28;20227;-74
2021/08/02 10:20:49;;;;;;;2.97;1.55;;;21.10;99.90;;;;;;5097242;28;20200;-74
2021/08/02 10:23:25;;;;;;;4.22;1.48;;;21.20;99.90;;;;;;5096975;28;20455;-74
2021/08/02 10:25:52;;;;;;;4.50;1.40;;;21.20;99.90;;;;;;5097427;28;20266;-74
2021/08/02 10:28:21;;;;;;;2.45;1.20;;;21.20;99.90;;;;;;5097359;28;20260;-74
2021/08/02 10:30:49;;;;;;;8.10;1.20;;;21.10;99.90;;;;;;5097911;28;20269;-74
2021/08/02 10:33:16;;;;;;;2.92;1.55;;;21.20;99.90;;;;;;5096916;28;20201;-74
2021/08/02 10:35:45;;;;;;;3.08;1.55;;;21.30;99.90;;;;;;5098169;28;20204;-75
2021/08/02 10:38:14;;;;;;;2.10;1.30;;;21.40;99.90;;;;;;5097689;28;20215;-74
2021/08/02 10:40:54;;;;;;;5.00;1.67;;;21.50;99.90;;;;;;5096724;28;20262;-76
2021/08/02 10:43:33;;;;;;;8.52;2.17;;;21.90;99.90;;;;;;5095849;28;20220;-76
2021/08/02 10:46:01;;;;;;;4.63;2.10;;;22.20;99.90;;;;;;5095269;28;20608;-76
2021/08/02 10:48:30;;;;;;;5.57;2.05;;;22.20;99.90;;;;;;5097791;28;20286;-76
2021/08/02 10:51:09;;;;;;;5.50;2.15;;;22.20;99.90;;;;;;5097542;28;20217;-76
2021/08/02 10:53:36;;;;;;;4.72;2.30;;;22.10;99.90;;;;;;5096300;28;20205;-76
2021/08/02 10:56:04;;;;;;;4.93;2.13;;;22.10;99.90;;;;;;5097401;28;20703;-76
2021/08/02 10:58:34;;;;;;;7.00;2.38;;;21.90;99.90;;;;;;5096341;28;20196;-76
2021/08/02 11:01:02;;;;;;;4.50;2.20;;;21.80;99.90;;;;;;5096985;28;20232;-76
2021/08/02 11:03:35;;;;;;;4.93;2.13;;;21.60;99.90;;;;;;5097843;28;20229;-76
2021/08/02 11:06:09;;;;;;;3.20;1.77;;;21.50;99.90;;;;;;5097275;28;20262;-76
2021/08/02 11:08:44;;;;;;;4.03;2.50;;;21.50;99.90;;;;;;5096314;28;20716;-75
2021/08/02 11:11:19;;;;;;;9.65;2.55;;;21.40;99.90;;;;;;5096697;28;20199;-76
2021/08/02 11:13:47;;;;;;;6.28;2.25;;;21.40;99.90;;;;;;5097180;28;20216;-76
2021/08/02 11:16:14;;;;;;;4.28;2.00;;;21.30;99.90;;;;;;5082928;28;20292;-76
2021/08/02 11:18:44;;;;;;;2.42;1.77;;;21.30;99.90;;;;;;5083675;28;20197;-76
2021/08/02 11:21:22;;;;;;;6.97;2.10;;;21.40;99.90;;;;;;5083212;28;20296;-76
2021/08/02 11:23:49;;;;;;;3.45;1.88;;;21.50;99.90;;;;;;5083227;28;20228;-76
2021/08/02 11:26:17;;;;;;;4.22;2.00;;;21.50;99.90;;;;;;5082777;28;20238;-76
2021/08/02 11:28:45;;;;;;;3.47;2.10;;;21.60;99.90;;;;;;5082906;28;20233;-76
2021/08/02 11:31:14;;;;;;;5.25;2.25;;;21.60;99.90;;;;;;5082327;28;20216;-76
2021/08/02 11:33:42;;;;;;;2.60;1.67;;;21.80;99.90;;;;;;5081004;28;20212;-76
2021/08/02 11:36:16;;;;;;;3.28;1.85;;;21.70;99.90;;;;;;5081695;28;21414;-75
2021/08/02 11:38:43;;;;;;;6.40;2.42;;;21.70;99.90;;;;;;5082768;28;20256;-76
2021/08/02 11:41:10;;;;;;;5.97;2.20;;;21.60;99.90;;;;;;5082561;28;20201;-76
2021/08/02 11:43:45;;;;;;;3.72;1.65;;;21.60;99.90;;;;;;5082390;28;20236;-76
2021/08/02 11:46:13;;;;;;;5.32;2.00;;;21.60;99.90;;;;;;5081088;28;20281;-76
2021/08/02 11:48:43;;;;;;;5.50;1.58;;;21.50;99.90;;;;;;5080958;28;20197;-76
2021/08/02 11:51:12;;;;;;;4.20;1.95;;;21.60;99.90;;;;;;5082231;28;20203;-76
2021/08/02 11:53:39;;;;;;;4.35;1.73;;;21.70;99.90;;;;;;5081383;28;20201;-76
2021/08/02 11:56:07;;;;;;;1.88;1.63;;;21.70;99.90;;;;;;5082416;28;20210;-76
2021/08/02 11:58:41;;;;;;;6.60;1.85;;;21.70;99.90;;;;;;5081779;28;20197;-76
2021/08/02 12:01:10;;;;;;;4.72;1.80;;;21.80;99.90;;;;;;5082910;28;20209;-76
2021/08/02 12:03:37;;;;;;;3.90;2.08;;;21.90;99.90;;;;;;5081379;28;20266;-76
2021/08/02 12:06:05;;;;;;;5.05;2.30;;;21.90;99.90;;;;;;5081695;28;20205;-76
2021/08/02 12:08:32;;;;;;;4.75;1.88;;;22.00;99.90;;;;;;5082016;28;20201;-76
2021/08/02 12:11:02;;;;;;;4.93;2.08;;;21.90;99.90;;;;;;5081313;28;20197;-76
2021/08/02 12:13:40;;;;;;;4.68;1.90;;;21.90;99.90;;;;;;5079637;28;20209;-75
2021/08/02 12:16:10;;;;;;;3.08;2.03;;;21.90;99.90;;;;;;5080777;28;20260;-75
2021/08/02 12:18:37;;;;;;;4.60;1.80;;;21.90;99.90;;;;;;5081725;28;20262;-76
2021/08/02 12:21:17;;;;;;;7.20;2.25;;;21.90;99.90;;;;;;5081264;28;20209;-76
2021/08/02 12:23:44;;;;;;;5.50;2.17;;;21.90;99.90;;;;;;5082178;28;20630;-76
2021/08/02 12:26:21;;;;;;;2.70;1.80;;;22.00;99.90;;;;;;5081281;28;20228;-76
2021/08/02 12:28:49;;;;;;;2.78;2.10;;;22.10;99.90;;;;;;5081668;28;20208;-76
2021/08/02 12:31:20;;;;;;;4.30;2.13;;;22.10;99.90;;;;;;5082308;28;20231;-76
2021/08/02 12:33:49;;;;;;;6.57;1.90;;;22.00;99.90;;;;;;5081113;28;20353;-76
2021/08/02 12:36:17;;;;;;;5.28;2.15;;;22.00;99.90;;;;;;5080653;28;20201;-76
2021/08/02 12:38:46;;;;;;;5.13;2.05;;;22.00;99.90;;;;;;5081987;28;20209;-76
2021/08/02 12:41:13;;;;;;;2.65;1.92;;;22.00;99.90;;;;;;5081367;28;20193;-76
2021/08/02 12:43:42;;;;;;;4.03;2.20;;;21.90;99.90;;;;;;5082168;28;20310;-76
2021/08/02 12:46:09;;;;;;;3.65;1.80;;;22.00;99.90;;;;;;5080927;28;20209;-75
2021/08/02 12:48:37;;;;;;;2.45;2.20;;;22.00;99.90;;;;;;5078995;28;20230;-76
2021/08/02 12:51:04;;;;;;;3.22;1.95;;;22.10;99.90;;;;;;5080726;28;20645;-76
2021/08/02 12:53:31;;;;;;;3.80;2.10;;;22.00;99.90;;;;;;5080723;28;20209;-76
2021/08/02 12:55:58;;;;;;;2.75;2.10;;;21.90;99.90;;;;;;5080475;28;20209;-76
2021/08/02 12:58:25;;;;;;;7.68;2.00;;;21.90;99.90;;;;;;5081532;28;20204;-76
2021/08/02 13:00:52;;;;;;;4.78;2.60;;;22.00;99.90;;;;;;5080236;28;20197;-76
2021/08/02 13:03:19;;;;;;;5.63;2.00;;;22.00;99.90;;;;;;5081264;28;20228;-76
2021/08/02 13:05:47;;;;;;;1.80;1.25;;;21.90;99.90;;;;;;5079360;28;20256;-76
2021/08/02 13:08:14;;;;;;;3.63;1.63;;;21.80;99.90;;;;;;5079690;28;20209;-76
2021/08/02 13:10:41;;;;;;;1.83;1.40;;;21.90;99.90;;;;;;5080214;28;20303;-76
2021/08/02 13:13:08;;;;;;;1.80;1.65;;;22.00;99.90;;;;;;5081195;28;20204;-76
2021/08/02 13:15:35;;;;;;;6.85;1.83;;;22.00;99.90;;;;;;5080061;28;20201;-76
2021/08/02 13:18:02;;;;;;;4.95;1.95;;;22.00;99.90;;;;;;5080743;28;20228;-76
2021/08/02 13:20:30;;;;;;;4.32;2.35;;;22.00;99.90;;;;;;5080402;28;20259;-75
2021/08/02 13:23:02;;;;;;;3.10;1.63;;;21.90;99.90;;;;;;5080145;28;20266;-76
2021/08/02 13:28:13;;;;;;;4.07;1.83;;;21.80;99.90;;;;;;5079424;28;20236;-76
2021/08/02 13:30:41;;;;;;;1.90;1.55;;;21.90;99.90;;;;;;5079542;28;20205;-76